createdAt,value
2023-04-14T00:01:17.523Z,6.18
2023-04-14T00:03:45.643Z,6.17
2023-04-14T00:06:12.920Z,6.17
2023-04-14T00:08:40.342Z,6.18
2023-04-14T00:11:07.598Z,6.23
2023-04-14T00:13:34.964Z,6.28
2023-04-14T00:16:02.495Z,6.20
2023-04-14T00:18:38.410Z,6.15
2023-04-14T00:21:05.734Z,6.09
2023-04-14T00:23:32.991Z,6.11
2023-04-14T00:26:00.587Z,6.08
2023-04-14T00:28:27.710Z,6.11
2023-04-14T00:30:54.916Z,6.13
2023-04-14T00:33:22.218Z,6.10
2023-04-14T00:35:51.196Z,6.14
2023-04-14T00:38:18.404Z,6.13
2023-04-14T00:40:45.876Z,6.14
2023-04-14T00:43:13.040Z,6.13
2023-04-14T00:45:46.783Z,6.17
2023-04-14T00:48:18.778Z,6.22
2023-04-14T00:50:47.570Z,6.20
2023-04-14T00:53:15.046Z,6.17
2023-04-14T00:55:42.869Z,6.10
2023-04-14T00:58:11.022Z,6.10
2023-04-14T01:00:38.555Z,6.09
2023-04-14T01:03:06.779Z,6.10
2023-04-14T01:05:34.527Z,6.08
2023-04-14T01:08:03.918Z,6.04
2023-04-14T01:10:41.445Z,6.02
2023-04-14T01:13:35.371Z,5.99
2023-04-14T01:16:29.439Z,6.00
2023-04-14T01:19:38.101Z,5.93
2023-04-14T01:22:09.825Z,5.93
2023-04-14T01:25:19.722Z,5.96
2023-04-14T01:28:28.362Z,5.89
2023-04-14T01:31:38.320Z,5.80
2023-04-14T01:34:33.839Z,5.77
2023-04-14T01:37:17.172Z,5.73
2023-04-14T01:39:54.657Z,5.66
2023-04-14T01:42:31.226Z,5.62
2023-04-14T01:45:10.963Z,5.56
2023-04-14T01:47:41.971Z,5.52
2023-04-14T01:50:11.663Z,5.47
2023-04-14T01:52:43.457Z,5.43
2023-04-14T01:55:11.773Z,5.35
2023-04-14T01:57:44.301Z,5.34
2023-04-14T02:00:13.681Z,5.36
2023-04-14T02:02:47.023Z,5.31
2023-04-14T02:05:18.523Z,5.30
2023-04-14T02:07:51.447Z,5.35
2023-04-14T02:10:21.873Z,5.38
2023-04-14T02:12:54.939Z,5.33
2023-04-14T02:15:24.394Z,5.32
2023-04-14T02:17:52.855Z,5.29
2023-04-14T02:20:21.412Z,5.28
2023-04-14T02:22:48.772Z,5.28
2023-04-14T02:25:16.268Z,5.28
2023-04-14T02:28:02.921Z,5.26
2023-04-14T02:30:39.752Z,5.15
2023-04-14T02:33:17.019Z,5.13
2023-04-14T02:35:55.981Z,5.11
2023-04-14T02:38:35.579Z,5.11
2023-04-14T02:41:28.447Z,5.05
2023-04-14T02:44:24.208Z,5.03
2023-04-14T02:47:10.477Z,5.02
2023-04-14T02:49:48.337Z,4.96
2023-04-14T02:52:22.004Z,5.08
2023-04-14T02:54:51.555Z,5.04
2023-04-14T02:57:19.475Z,5.10
2023-04-14T02:59:54.229Z,5.03
2023-04-14T03:02:23.708Z,5.03
2023-04-14T03:05:17.956Z,4.98
2023-04-14T03:08:00.284Z,4.94
2023-04-14T03:10:28.277Z,4.93
2023-04-14T03:12:58.893Z,4.85
2023-04-14T03:15:27.985Z,4.83
2023-04-14T03:17:57.648Z,4.90
2023-04-14T03:20:26.920Z,4.89
2023-04-14T03:23:01.768Z,4.82
2023-04-14T03:25:37.897Z,4.81
2023-04-14T03:28:15.845Z,4.76
2023-04-14T03:30:50.873Z,4.74
2023-04-14T03:33:24.979Z,4.78
2023-04-14T03:35:56.736Z,4.73
2023-04-14T03:38:27.972Z,4.75
2023-04-14T03:40:59.975Z,4.58
2023-04-14T03:43:29.517Z,4.46
2023-04-14T03:46:05.342Z,4.45
2023-04-14T03:48:38.692Z,4.36
2023-04-14T03:51:09.071Z,4.43
2023-04-14T03:53:41.769Z,4.28
2023-04-14T03:56:14.426Z,4.11
2023-04-14T03:58:50.720Z,4.08
2023-04-14T04:01:25.733Z,4.05
2023-04-14T04:03:55.741Z,3.98
2023-04-14T04:06:24.428Z,3.99
2023-04-14T04:08:53.484Z,4.04
2023-04-14T04:11:24.933Z,3.95
2023-04-14T04:13:57.229Z,3.86
2023-04-14T04:16:27.850Z,3.81
2023-04-14T04:18:55.760Z,3.73
2023-04-14T04:21:32.396Z,3.65
2023-04-14T04:24:02.209Z,3.60
2023-04-14T04:26:30.259Z,3.65
2023-04-14T04:28:58.501Z,3.71
2023-04-14T04:31:28.825Z,3.81
2023-04-14T04:33:59.707Z,3.76
2023-04-14T04:36:28.243Z,3.72
2023-04-14T04:38:56.945Z,3.73
2023-04-14T04:41:28.616Z,3.71
2023-04-14T04:43:59.072Z,3.69
2023-04-14T04:46:46.081Z,3.62
2023-04-14T04:49:15.278Z,3.56
2023-04-14T04:51:44.263Z,3.57
2023-04-14T04:54:11.780Z,3.74
2023-04-14T04:56:38.973Z,3.70
2023-04-14T04:59:06.673Z,3.58
2023-04-14T05:01:34.251Z,3.56
2023-04-14T05:04:01.662Z,3.60
2023-04-14T05:06:28.962Z,3.61
2023-04-14T05:08:56.562Z,3.72
2023-04-14T05:11:23.934Z,3.74
2023-04-14T05:13:51.106Z,3.67
2023-04-14T05:16:18.476Z,3.74
2023-04-14T05:18:48.171Z,3.79
2023-04-14T05:21:15.915Z,3.89
2023-04-14T05:23:45.918Z,3.86
2023-04-14T05:26:38.742Z,3.91
2023-04-14T05:29:02.207Z,3.97
2023-04-14T05:31:29.741Z,3.99
2023-04-14T05:33:56.928Z,4.05
2023-04-14T05:36:24.317Z,4.21
2023-04-14T05:38:51.558Z,4.19
2023-04-14T05:41:18.725Z,4.24
2023-04-14T05:43:45.913Z,4.30
2023-04-14T05:46:13.085Z,4.37
2023-04-14T05:48:40.497Z,4.49
2023-04-14T05:51:07.658Z,4.54
2023-04-14T05:53:34.928Z,4.54
2023-04-14T05:56:02.201Z,4.51
2023-04-14T05:58:29.502Z,4.51
2023-04-14T06:00:56.660Z,4.62
2023-04-14T06:03:26.631Z,4.66
2023-04-14T06:05:53.970Z,4.67
2023-04-14T06:08:21.284Z,4.77
2023-04-14T06:10:48.474Z,4.92
2023-04-14T06:13:16.809Z,4.99
2023-04-14T06:15:44.062Z,5.17
2023-04-14T06:18:11.240Z,5.31
2023-04-14T06:20:39.049Z,5.31
2023-04-14T06:23:06.654Z,5.42
2023-04-14T06:25:37.035Z,5.47
2023-04-14T06:28:04.348Z,5.54
2023-04-14T06:30:34.625Z,5.57
2023-04-14T06:33:04.343Z,5.61
2023-04-14T06:35:33.930Z,5.70
2023-04-14T06:38:02.728Z,5.69
2023-04-14T06:40:30.598Z,5.74
2023-04-14T06:42:58.263Z,5.90
2023-04-14T06:45:26.154Z,5.90
2023-04-14T06:47:53.395Z,5.97
2023-04-14T06:50:20.625Z,6.08
2023-04-14T06:52:47.784Z,6.03
2023-04-14T06:55:15.531Z,6.04
2023-04-14T06:57:42.846Z,6.09
2023-04-14T07:00:11.379Z,6.16
2023-04-14T07:02:39.520Z,6.19
2023-04-14T07:05:07.832Z,6.18
2023-04-14T07:07:37.195Z,6.39
2023-04-14T07:10:05.294Z,6.43
2023-04-14T07:12:33.794Z,6.52
2023-04-14T07:15:00.955Z,6.58
2023-04-14T07:17:28.188Z,6.62
2023-04-14T07:19:56.740Z,6.84
2023-04-14T07:22:23.991Z,6.61
2023-04-14T07:24:51.634Z,6.89
2023-04-14T07:27:18.808Z,7.05
2023-04-14T07:29:46.177Z,7.27
2023-04-14T07:32:13.661Z,7.22
2023-04-14T07:34:43.717Z,7.35
2023-04-14T07:37:11.780Z,7.31
2023-04-14T07:39:39.674Z,7.29
2023-04-14T07:42:07.117Z,7.34
2023-04-14T07:44:34.554Z,7.39
2023-04-14T07:47:01.768Z,7.94
2023-04-14T07:49:28.949Z,7.92
2023-04-14T07:51:56.833Z,7.92
2023-04-14T07:54:24.507Z,8.16
2023-04-14T07:56:51.960Z,8.04
2023-04-14T07:59:19.134Z,8.12
2023-04-14T08:01:46.530Z,8.06
2023-04-14T08:04:14.188Z,8.27
2023-04-14T08:06:41.616Z,8.33
2023-04-14T08:09:08.798Z,8.36
2023-04-14T08:11:36.027Z,8.45
2023-04-14T08:14:04.640Z,8.55
2023-04-14T08:16:36.530Z,8.51
2023-04-14T08:19:05.224Z,8.65
2023-04-14T08:21:33.181Z,8.61
2023-04-14T08:24:01.013Z,8.71
2023-04-14T08:26:28.466Z,8.99
2023-04-14T08:28:55.788Z,9.05
2023-04-14T08:31:24.864Z,9.19
2023-04-14T08:33:52.888Z,9.44
2023-04-14T08:36:20.961Z,9.50
2023-04-14T08:38:48.417Z,9.61
2023-04-14T08:41:21.015Z,9.84
2023-04-14T08:43:48.294Z,9.83
2023-04-14T08:46:16.809Z,9.90
2023-04-14T08:48:48.008Z,10.02
2023-04-14T08:51:39.674Z,9.97
2023-04-14T08:54:11.145Z,9.95
2023-04-14T08:56:41.976Z,10.18
2023-04-14T08:59:11.546Z,10.28
2023-04-14T09:01:39.815Z,10.38
2023-04-14T09:04:08.398Z,10.81
2023-04-14T09:06:36.426Z,10.77
2023-04-14T09:09:09.964Z,10.78
2023-04-14T09:11:37.820Z,10.99
2023-04-14T09:14:06.063Z,11.06
2023-04-14T09:16:33.420Z,11.23
2023-04-14T09:19:07.032Z,11.04
2023-04-14T09:21:51.581Z,11.08
2023-04-14T09:24:31.757Z,11.33
2023-04-14T09:27:06.743Z,11.55
2023-04-14T09:29:34.568Z,11.66
2023-04-14T09:32:02.374Z,11.68
2023-04-14T09:34:29.733Z,11.73
2023-04-14T09:37:06.919Z,11.74
2023-04-14T09:39:36.937Z,11.80
2023-04-14T09:42:09.620Z,11.90
2023-04-14T09:44:54.478Z,12.09
2023-04-14T09:47:26.546Z,12.11
2023-04-14T09:50:03.298Z,12.14
2023-04-14T09:52:40.298Z,12.14
2023-04-14T09:55:16.083Z,12.23
2023-04-14T09:57:47.601Z,12.40
2023-04-14T10:00:24.438Z,12.54
2023-04-14T10:03:01.390Z,12.73
2023-04-14T10:05:32.916Z,12.73
2023-04-14T10:08:05.905Z,13.02
2023-04-14T10:10:33.268Z,13.16
2023-04-14T10:13:00.939Z,13.09
2023-04-14T10:15:28.548Z,13.35
2023-04-14T10:17:56.766Z,13.38
2023-04-14T10:20:25.150Z,13.41
2023-04-14T10:22:52.719Z,13.53
2023-04-14T10:25:20.675Z,13.37
2023-04-14T10:27:49.679Z,13.67
2023-04-14T10:30:17.060Z,13.76
2023-04-14T10:32:49.923Z,13.81
2023-04-14T10:35:19.330Z,13.93
2023-04-14T10:37:53.660Z,14.19
2023-04-14T10:40:22.814Z,14.42
2023-04-14T10:42:56.366Z,14.72
2023-04-14T10:45:23.822Z,14.64
2023-04-14T10:47:51.804Z,14.44
2023-04-14T10:50:25.044Z,14.71
2023-04-14T10:52:58.996Z,14.51
2023-04-14T10:55:28.115Z,14.82
2023-04-14T10:58:06.504Z,14.69
2023-04-14T11:00:39.142Z,15.06
2023-04-14T11:03:16.941Z,15.44
2023-04-14T11:05:49.294Z,17.27
2023-04-14T11:08:34.471Z,20.95
2023-04-14T11:11:06.116Z,22.46
2023-04-14T11:13:34.923Z,22.32
2023-04-14T11:16:07.837Z,22.54
2023-04-14T11:18:46.086Z,24.08
2023-04-14T11:21:16.960Z,23.31
2023-04-14T11:23:44.584Z,22.27
2023-04-14T11:26:13.987Z,25.65
2023-04-14T11:28:44.614Z,26.28
2023-04-14T11:31:15.864Z,26.74
2023-04-14T11:33:44.583Z,20.19
2023-04-14T11:36:12.903Z,22.57
2023-04-14T11:38:40.732Z,19.37
2023-04-14T11:41:09.480Z,18.49
2023-04-14T11:43:38.818Z,18.09
2023-04-14T11:46:08.213Z,18.31
2023-04-14T11:48:35.506Z,18.70
2023-04-14T11:51:03.749Z,17.83
2023-04-14T11:53:32.261Z,18.11
2023-04-14T11:56:00.836Z,17.75
2023-04-14T11:58:28.871Z,17.63
2023-04-14T12:00:59.779Z,17.57
2023-04-14T12:03:35.660Z,17.52
2023-04-14T12:06:03.786Z,17.98
2023-04-14T12:08:32.622Z,17.92
2023-04-14T12:11:15.606Z,17.35
2023-04-14T12:13:45.446Z,17.87
2023-04-14T12:16:14.911Z,18.12
2023-04-14T12:18:43.768Z,17.40
2023-04-14T12:21:16.562Z,17.66
2023-04-14T12:23:50.504Z,17.61
2023-04-14T12:26:20.679Z,17.91
2023-04-14T12:28:57.523Z,18.15
2023-04-14T12:31:31.956Z,18.16
2023-04-14T12:34:03.727Z,18.26
2023-04-14T12:36:48.037Z,18.40
2023-04-14T12:39:17.157Z,18.43
2023-04-14T12:41:44.603Z,17.86
2023-04-14T12:44:30.416Z,17.88
2023-04-14T12:46:58.151Z,18.01
2023-04-14T12:49:36.665Z,18.09
2023-04-14T12:52:05.326Z,18.21
2023-04-14T12:54:54.542Z,18.12
2023-04-14T12:57:22.480Z,18.47
2023-04-14T12:59:50.456Z,18.34
2023-04-14T13:02:18.571Z,18.16
2023-04-14T13:04:45.906Z,18.35
2023-04-14T13:07:13.072Z,18.51
2023-04-14T13:09:40.301Z,18.70
2023-04-14T13:12:07.457Z,18.79
2023-04-14T13:14:34.637Z,18.73
2023-04-14T13:17:02.840Z,18.87
2023-04-14T13:19:29.921Z,18.62
2023-04-14T13:21:57.100Z,18.76
2023-04-14T13:24:25.398Z,18.73
2023-04-14T13:26:52.615Z,18.87
2023-04-14T13:29:19.832Z,18.73
2023-04-14T13:31:47.087Z,18.87
2023-04-14T13:34:14.430Z,18.80
2023-04-14T13:36:41.586Z,18.73
2023-04-14T13:39:08.922Z,18.85
2023-04-14T13:41:38.565Z,19.74
2023-04-14T13:44:05.890Z,19.30
2023-04-14T13:46:40.612Z,20.82
2023-04-14T13:49:08.523Z,22.63
2023-04-14T13:51:35.750Z,24.29
2023-04-14T13:54:02.896Z,25.04
2023-04-14T13:56:30.291Z,26.96
2023-04-14T13:58:57.500Z,27.99
2023-04-14T14:01:26.451Z,29.33
2023-04-14T14:03:53.775Z,26.28
2023-04-14T14:06:21.429Z,26.60
2023-04-14T14:09:05.228Z,27.44
2023-04-14T14:11:34.443Z,27.55
2023-04-14T14:14:01.867Z,27.78
2023-04-14T14:16:36.655Z,28.02
2023-04-14T14:19:07.963Z,27.86
2023-04-14T14:21:35.634Z,28.24
2023-04-14T14:24:03.813Z,29.52
2023-04-14T14:26:31.276Z,29.18
2023-04-14T14:28:58.492Z,29.50
2023-04-14T14:31:26.027Z,29.15
2023-04-14T14:33:53.250Z,28.54
2023-04-14T14:36:20.433Z,29.19
2023-04-14T14:38:47.672Z,30.43
2023-04-14T14:41:14.813Z,31.67
2023-04-14T14:43:42.084Z,30.04
2023-04-14T14:46:09.343Z,28.78
2023-04-14T14:48:36.617Z,29.47
2023-04-14T14:51:04.408Z,28.79
2023-04-14T14:53:32.393Z,28.78
2023-04-14T14:55:59.542Z,28.85
2023-04-14T14:58:26.807Z,28.26
2023-04-14T15:00:54.368Z,29.27
2023-04-14T15:03:21.839Z,29.36
2023-04-14T15:05:49.716Z,30.18
2023-04-14T15:08:17.038Z,28.85
2023-04-14T15:10:44.234Z,30.09
2023-04-14T15:13:12.703Z,30.81
2023-04-14T15:15:42.309Z,29.00
2023-04-14T15:18:10.442Z,28.70
2023-04-14T15:20:37.607Z,28.68
2023-04-14T15:23:04.831Z,28.28
2023-04-14T15:25:31.947Z,29.24
2023-04-14T15:27:59.175Z,28.38
2023-04-14T15:30:27.137Z,25.74
2023-04-14T15:32:54.655Z,23.75
2023-04-14T15:35:21.838Z,22.47
2023-04-14T15:37:48.969Z,25.10
2023-04-14T15:40:16.258Z,26.25
2023-04-14T15:42:43.999Z,26.32
2023-04-14T15:45:11.901Z,25.02
2023-04-14T15:47:39.226Z,23.50
2023-04-14T15:50:09.948Z,25.92
2023-04-14T15:52:41.131Z,27.63
2023-04-14T15:55:10.647Z,27.72
2023-04-14T15:57:37.923Z,27.35
2023-04-14T16:00:08.499Z,27.78
2023-04-14T16:02:43.180Z,26.98
2023-04-14T16:05:11.147Z,27.07
2023-04-14T16:07:40.004Z,27.59
2023-04-14T16:10:08.454Z,23.82
2023-04-14T16:12:36.659Z,27.39
2023-04-14T16:15:08.059Z,27.39
2023-04-14T16:17:35.640Z,27.47
2023-04-14T16:20:03.583Z,28.76
2023-04-14T16:22:31.166Z,22.29
2023-04-14T16:24:58.278Z,25.22
2023-04-14T16:27:25.408Z,25.46
2023-04-14T16:29:52.791Z,24.38
2023-04-14T16:32:19.963Z,26.89
2023-04-14T16:34:47.319Z,26.63
2023-04-14T16:37:14.621Z,26.45
2023-04-14T16:39:41.821Z,24.36
2023-04-14T16:42:09.485Z,22.08
2023-04-14T16:44:37.093Z,24.75
2023-04-14T16:47:04.281Z,24.95
2023-04-14T16:49:31.689Z,23.27
2023-04-14T16:52:00.344Z,25.59
2023-04-14T16:54:28.022Z,25.02
2023-04-14T16:56:55.128Z,25.38
2023-04-14T16:59:22.678Z,25.72
2023-04-14T17:01:50.145Z,26.45
2023-04-14T17:04:17.773Z,26.69
2023-04-14T17:06:46.198Z,25.97
2023-04-14T17:09:13.557Z,24.12
2023-04-14T17:11:42.416Z,24.68
2023-04-14T17:14:10.243Z,23.94
2023-04-14T17:16:38.051Z,20.15
2023-04-14T17:19:05.263Z,23.09
2023-04-14T17:21:32.395Z,23.05
2023-04-14T17:23:59.595Z,22.83
2023-04-14T17:26:27.113Z,22.64
2023-04-14T17:28:54.360Z,20.86
2023-04-14T17:31:21.507Z,21.87
2023-04-14T17:33:48.935Z,20.75
2023-04-14T17:36:17.380Z,20.91
2023-04-14T17:38:45.696Z,19.46
2023-04-14T17:41:13.715Z,19.38
2023-04-14T17:43:41.472Z,19.15
2023-04-14T17:46:09.155Z,18.84
2023-04-14T17:48:37.021Z,18.17
2023-04-14T17:51:04.953Z,17.80
2023-04-14T17:53:32.300Z,17.87
2023-04-14T17:55:59.612Z,18.00
2023-04-14T17:58:27.208Z,17.70
2023-04-14T18:00:54.377Z,16.40
2023-04-14T18:03:21.650Z,16.68
2023-04-14T18:05:49.155Z,16.60
2023-04-14T18:08:16.917Z,16.77
2023-04-14T18:10:45.913Z,15.86
2023-04-14T18:13:13.243Z,15.82
2023-04-14T18:15:41.900Z,15.54
2023-04-14T18:18:09.158Z,15.63
2023-04-14T18:20:37.450Z,15.97
2023-04-14T18:23:05.147Z,16.08
2023-04-14T18:28:03.608Z,16.13
2023-04-14T18:30:31.355Z,15.68
2023-04-14T18:32:58.754Z,15.85
2023-04-14T18:35:26.482Z,15.74
2023-04-14T18:37:53.716Z,15.57
2023-04-14T18:40:21.104Z,15.57
2023-04-14T18:42:49.073Z,15.38
2023-04-14T18:45:16.542Z,15.16
2023-04-14T18:47:45.891Z,15.14
2023-04-14T18:50:13.276Z,15.05
2023-04-14T18:52:40.659Z,14.89
2023-04-14T18:55:09.415Z,14.79
2023-04-14T18:57:36.885Z,14.69
2023-04-14T19:00:05.213Z,14.62
2023-04-14T19:02:34.495Z,14.56
2023-04-14T19:05:02.523Z,14.44
2023-04-14T19:07:29.884Z,14.33
2023-04-14T19:09:57.134Z,14.17
2023-04-14T19:12:28.533Z,14.17
2023-04-14T19:14:56.422Z,14.18
2023-04-14T19:17:23.909Z,14.07
2023-04-14T19:19:51.145Z,14.03
2023-04-14T19:22:18.301Z,13.97
2023-04-14T19:24:45.460Z,14.03
2023-04-14T19:27:12.575Z,13.97
2023-04-14T19:29:39.759Z,13.86
2023-04-14T19:32:07.130Z,13.74
2023-04-14T19:34:34.557Z,13.67
2023-04-14T19:37:03.972Z,13.69
2023-04-14T19:39:31.534Z,13.61
2023-04-14T19:41:58.671Z,13.50
2023-04-14T19:44:27.104Z,13.56
2023-04-14T19:46:54.181Z,13.54
2023-04-14T19:49:21.494Z,13.64
2023-04-14T19:51:50.819Z,13.62
2023-04-14T19:54:18.250Z,13.61
2023-04-14T19:56:45.427Z,13.54
2023-04-14T19:59:12.604Z,13.31
2023-04-14T20:01:40.895Z,13.19
2023-04-14T20:04:12.667Z,13.16
2023-04-14T20:06:41.376Z,13.03
2023-04-14T20:09:09.006Z,12.95
2023-04-14T20:11:36.145Z,12.80
2023-04-14T20:14:05.732Z,12.75
2023-04-14T20:16:33.014Z,12.79
2023-04-14T20:19:00.787Z,12.81
2023-04-14T20:21:28.189Z,12.71
2023-04-14T20:23:55.325Z,12.69
2023-04-14T20:26:23.070Z,12.62
2023-04-14T20:28:50.309Z,12.68
2023-04-14T20:31:18.269Z,12.57
2023-04-14T20:33:45.480Z,12.48
2023-04-14T20:36:12.637Z,12.38
2023-04-14T20:38:39.770Z,12.34
2023-04-14T20:41:06.950Z,12.27
2023-04-14T20:43:34.396Z,12.22
2023-04-14T20:46:03.740Z,12.20
2023-04-14T20:48:32.186Z,12.09
2023-04-14T20:51:00.525Z,12.08
2023-04-14T20:53:29.874Z,12.09
2023-04-14T20:55:57.208Z,12.02
2023-04-14T20:58:24.623Z,11.86
2023-04-14T21:00:51.839Z,11.78
2023-04-14T21:03:19.238Z,11.70
2023-04-14T21:05:47.223Z,11.63
2023-04-14T21:08:14.415Z,11.56
2023-04-14T21:11:14.732Z,11.48
2023-04-14T21:15:28.763Z,11.44
2023-04-14T21:16:17.225Z,11.45
2023-04-14T21:18:44.496Z,11.42
2023-04-14T21:21:12.951Z,11.36
2023-04-14T21:23:40.063Z,11.33
2023-04-14T21:26:07.995Z,11.27
2023-04-14T21:28:35.528Z,11.22
2023-04-14T21:31:06.601Z,11.14
2023-04-14T21:33:34.065Z,11.04
2023-04-14T21:36:01.799Z,10.99
2023-04-14T21:38:29.425Z,10.96
2023-04-14T21:40:57.136Z,10.87
2023-04-14T21:43:24.329Z,10.77
2023-04-14T21:45:51.878Z,10.66
2023-04-14T21:48:19.150Z,10.59
2023-04-14T21:50:46.689Z,10.56
2023-04-14T21:53:14.000Z,10.54
2023-04-14T21:55:42.030Z,10.52
2023-04-14T21:58:09.289Z,10.52
2023-04-14T22:00:37.142Z,10.46
2023-04-14T22:03:04.637Z,10.31
2023-04-14T22:05:32.012Z,10.28
2023-04-14T22:07:59.768Z,10.25
2023-04-14T22:10:32.015Z,10.18
2023-04-14T22:13:00.411Z,10.05
2023-04-14T22:15:27.771Z,9.90
2023-04-14T22:17:55.066Z,9.81
2023-04-14T22:20:23.700Z,9.77
2023-04-14T22:22:50.828Z,9.72
2023-04-14T22:25:18.101Z,9.64
2023-04-14T22:27:45.245Z,9.54
2023-04-14T22:30:12.880Z,9.56
2023-04-14T22:32:40.095Z,9.51
2023-04-14T22:35:08.034Z,9.36
2023-04-14T22:37:35.153Z,9.39
2023-04-14T22:40:03.272Z,9.41
2023-04-14T22:42:30.961Z,9.52
2023-04-14T22:44:58.114Z,9.58
2023-04-14T22:47:25.315Z,9.58
2023-04-14T22:49:52.575Z,9.58
2023-04-14T22:52:19.771Z,9.57
2023-04-14T22:54:48.718Z,9.36
2023-04-14T22:57:15.973Z,9.23
2023-04-14T22:59:43.220Z,9.18
2023-04-14T23:02:11.397Z,9.14
2023-04-14T23:04:39.442Z,9.16
2023-04-14T23:07:06.696Z,9.25
2023-04-14T23:09:33.866Z,9.29
2023-04-14T23:12:02.584Z,9.38
2023-04-14T23:14:29.854Z,9.42
2023-04-14T23:16:58.074Z,9.43
2023-04-14T23:19:25.992Z,9.40
2023-04-14T23:21:53.176Z,9.33
2023-04-14T23:24:22.263Z,9.40
2023-04-14T23:26:49.401Z,9.42
2023-04-14T23:29:16.592Z,9.42
2023-04-14T23:31:43.791Z,9.40
2023-04-14T23:34:11.067Z,9.34
2023-04-14T23:36:38.358Z,9.28
2023-04-14T23:39:05.655Z,9.20
2023-04-14T23:41:32.957Z,9.10
2023-04-14T23:44:00.200Z,9.06
2023-04-14T23:46:27.580Z,9.05
2023-04-14T23:48:54.782Z,8.95
2023-04-14T23:51:23.022Z,8.90
2023-04-14T23:53:51.283Z,8.89
2023-04-14T23:56:18.527Z,8.82
2023-04-14T23:58:45.705Z,8.74
